Corpus Christi, Texas
Current Conditions -  °F | °C
As of 2:51 AM on Saturday 20 Dec 2014 (Local Time) from KCRP Reporting Station
Drizzle Drizzle  
Wind Chill: 54°   Ceiling: 1100
Heat Index: 54°   Visibility: 10mi
Dew Point: 51°   Wind: 12mph
Humidity: 90%   Direction: 10°N
Pressure: 30.14"   Gusts: NA
Location:  27.8°N, 97.4°W
Report Text: KCRP 200851Z 01010KT 10SM -DZ BKN011 OVC016 12/11 A3014 RMK AO2 DZB48 SLP205 P0000 60000 T01220106 53004 $
Loading
Personal Weather Stations






























Interactive Weather Map New forecast layout! Learn more

10-Day Weather Forecast

Advertisements
Track Severe Weather on mobile